createdAt,value
2022-12-03T00:11:36.334Z,1014.9
2022-12-03T00:26:53.284Z,1014.84
2022-12-03T00:42:09.251Z,1014.87
2022-12-03T00:57:25.313Z,1014.79
2022-12-03T01:12:42.194Z,1014.96
2022-12-03T01:28:00.192Z,1014.85
2022-12-03T01:43:17.130Z,1014.85
2022-12-03T01:58:33.131Z,1014.68
2022-12-03T02:13:49.077Z,1014.93
2022-12-03T02:29:06.077Z,1014.71
2022-12-03T02:44:22.025Z,1014.66
2022-12-03T02:59:37.957Z,1014.47
2022-12-03T03:14:55.215Z,1014.35
2022-12-03T03:30:12.932Z,1014.49
2022-12-03T03:45:29.992Z,1014.59
2022-12-03T04:00:45.878Z,1014.59
2022-12-03T04:16:01.851Z,1014.47
2022-12-03T04:17:12.639Z,1014.47
2022-12-03T04:31:20.874Z,1014.13
2022-12-03T04:46:36.784Z,1014.15
2022-12-03T05:01:52.810Z,1014.04
2022-12-03T05:17:24.149Z,1014.04
2022-12-03T05:32:26.725Z,1014.02
2022-12-03T05:47:43.686Z,1014.15
2022-12-03T06:03:00.749Z,1014.15
2022-12-03T06:18:17.560Z,1014.04
2022-12-03T06:33:33.539Z,1014.02
2022-12-03T06:48:49.549Z,1014.1
2022-12-03T07:04:05.487Z,1014.02
2022-12-03T07:19:25.256Z,1014.04
2022-12-03T07:34:39.483Z,1013.99
2022-12-03T07:49:56.437Z,1014.18
2022-12-03T08:05:12.400Z,1014.13
2022-12-03T08:20:29.353Z,1013.99
2022-12-03T08:35:45.338Z,1013.72
2022-12-03T08:51:01.360Z,1013.74
2022-12-03T09:06:17.270Z,1013.91
2022-12-03T09:21:34.224Z,1013.96
2022-12-03T09:36:51.184Z,1013.99
2022-12-03T09:52:08.153Z,1013.85
2022-12-03T10:07:24.173Z,1013.72
2022-12-03T10:22:41.081Z,1013.53
2022-12-03T10:37:57.109Z,1013.34
2022-12-03T10:53:13.039Z,1013.23
2022-12-03T11:08:30.022Z,1013.12
2022-12-03T11:23:47.966Z,1013.01
2022-12-03T11:39:05.011Z,1012.79
2022-12-03T11:54:20.908Z,1012.61
2022-12-03T12:09:36.911Z,1012.48
2022-12-03T12:24:54.885Z,1012.5
2022-12-03T12:40:10.851Z,1012.42
2022-12-03T12:55:26.799Z,1012.36
2022-12-03T13:10:42.781Z,1012.22
2022-12-03T13:26:06.604Z,1012.11
2022-12-03T13:41:16.748Z,1012.03
2022-12-03T13:56:33.660Z,1011.98
2022-12-03T14:11:50.651Z,1011.81
2022-12-03T14:27:07.620Z,1011.86
2022-12-03T14:42:23.571Z,1011.73
2022-12-03T14:57:39.625Z,1011.78
2022-12-03T15:12:55.496Z,1011.86
2022-12-03T15:28:12.507Z,1011.75
2022-12-03T15:43:29.442Z,1011.86
2022-12-03T15:58:46.453Z,1011.92
2022-12-03T16:14:02.390Z,1011.81
2022-12-03T16:29:19.324Z,1011.84
2022-12-03T16:44:35.333Z,1011.86
2022-12-03T16:59:56.583Z,1011.81
2022-12-03T17:15:12.255Z,1011.84
2022-12-03T17:30:25.209Z,1011.89
2022-12-03T17:45:42.216Z,1011.76
2022-12-03T18:01:02.855Z,1011.87
2022-12-03T18:16:15.287Z,1011.89
2022-12-03T18:31:32.170Z,1011.87
2022-12-03T18:46:54.533Z,1011.92
2022-12-03T19:02:04.203Z,1012.03
2022-12-03T19:17:21.039Z,1012.17
2022-12-03T19:32:38.981Z,1012.03
2022-12-03T19:47:55.976Z,1011.98
2022-12-03T20:03:11.967Z,1012.2
2022-12-03T20:18:27.912Z,1012.06
2022-12-03T20:33:44.869Z,1012.2
2022-12-03T20:49:00.879Z,1012.2
2022-12-03T21:04:16.824Z,1012.2
2022-12-03T21:19:33.800Z,1012.07
2022-12-03T21:34:51.793Z,1012.2
2022-12-03T21:50:08.742Z,1012.09
2022-12-03T22:05:24.692Z,1011.98
2022-12-03T22:20:40.687Z,1012.09
2022-12-03T22:35:57.644Z,1012.09
2022-12-03T22:51:13.607Z,1012.12
2022-12-03T23:06:30.578Z,1012.12
2022-12-03T23:21:47.557Z,1012.23
2022-12-03T23:37:04.517Z,1012.14
2022-12-03T23:52:20.460Z,1012.14
